sensor_id;sensor_type;location;lat;lon;timestamp;pressure;altitude;pressure_sealevel;temperature;humidity
74529;BME280;63009;52.584;5.932;2022-09-20T00:01:44;102330.16;;;9.21;75.34
74529;BME280;63009;52.584;5.932;2022-09-20T00:04:09;102353.63;;;9.31;75.68
74529;BME280;63009;52.584;5.932;2022-09-20T00:06:35;102340.03;;;9.15;76.08
74529;BME280;63009;52.584;5.932;2022-09-20T00:09:00;102331.25;;;9.13;76.14
74529;BME280;63009;52.584;5.932;2022-09-20T00:11:30;102358.25;;;9.22;76.53
74529;BME280;63009;52.584;5.932;2022-09-20T00:13:57;102353.06;;;9.19;76.46
74529;BME280;63009;52.584;5.932;2022-09-20T00:16:29;102346.97;;;9.17;76.43
74529;BME280;63009;52.584;5.932;2022-09-20T00:18:57;102350.69;;;9.10;76.91
74529;BME280;63009;52.584;5.932;2022-09-20T00:21:25;102359.41;;;9.12;76.61
74529;BME280;63009;52.584;5.932;2022-09-20T00:23:51;102344.69;;;9.05;76.39
74529;BME280;63009;52.584;5.932;2022-09-20T00:26:16;102348.13;;;9.07;76.65
74529;BME280;63009;52.584;5.932;2022-09-20T00:28:42;102343.03;;;9.01;76.72
74529;BME280;63009;52.584;5.932;2022-09-20T00:31:09;102352.53;;;9.07;76.87
74529;BME280;63009;52.584;5.932;2022-09-20T00:33:35;102350.00;;;9.04;76.60
74529;BME280;63009;52.584;5.932;2022-09-20T00:36:18;102354.38;;;9.05;76.01
74529;BME280;63009;52.584;5.932;2022-09-20T00:38:44;102351.69;;;9.06;76.46
74529;BME280;63009;52.584;5.932;2022-09-20T00:41:09;102352.69;;;9.02;76.61
74529;BME280;63009;52.584;5.932;2022-09-20T00:43:41;102358.81;;;9.03;76.49
74529;BME280;63009;52.584;5.932;2022-09-20T00:46:22;102349.09;;;9.05;76.58
74529;BME280;63009;52.584;5.932;2022-09-20T00:48:50;102350.00;;;9.04;77.00
74529;BME280;63009;52.584;5.932;2022-09-20T00:51:22;102356.19;;;9.03;77.14
74529;BME280;63009;52.584;5.932;2022-09-20T00:53:49;102362.38;;;9.00;77.65
74529;BME280;63009;52.584;5.932;2022-09-20T00:56:19;102350.28;;;8.93;77.38
74529;BME280;63009;52.584;5.932;2022-09-20T00:58:50;102338.25;;;8.83;77.28
74529;BME280;63009;52.584;5.932;2022-09-20T01:01:18;102354.03;;;8.84;77.56
74529;BME280;63009;52.584;5.932;2022-09-20T01:03:45;102345.44;;;8.78;77.68
74529;BME280;63009;52.584;5.932;2022-09-20T01:06:14;102342.94;;;8.73;78.22
74529;BME280;63009;52.584;5.932;2022-09-20T01:08:45;102354.44;;;8.69;78.46
74529;BME280;63009;52.584;5.932;2022-09-20T01:11:12;102349.97;;;8.73;78.41
74529;BME280;63009;52.584;5.932;2022-09-20T01:13:37;102351.69;;;8.74;78.19
74529;BME280;63009;52.584;5.932;2022-09-20T01:16:03;102341.16;;;8.72;78.78
74529;BME280;63009;52.584;5.932;2022-09-20T01:18:31;102346.53;;;8.69;78.70
74529;BME280;63009;52.584;5.932;2022-09-20T01:20:58;102351.75;;;8.71;78.85
74529;BME280;63009;52.584;5.932;2022-09-20T01:31:56;102348.53;;;8.61;80.78
74529;BME280;63009;52.584;5.932;2022-09-20T01:34:32;102346.78;;;8.60;81.00
74529;BME280;63009;52.584;5.932;2022-09-20T01:42:45;102332.06;;;8.51;81.15
74529;BME280;63009;52.584;5.932;2022-09-20T01:45:21;102344.22;;;8.57;81.63
74529;BME280;63009;52.584;5.932;2022-09-20T01:47:56;102341.66;;;8.54;82.64
74529;BME280;63009;52.584;5.932;2022-09-20T01:50:36;102362.00;;;8.49;82.76
74529;BME280;63009;52.584;5.932;2022-09-20T01:59:07;102361.59;;;8.28;82.88
74529;BME280;63009;52.584;5.932;2022-09-20T02:07:20;102356.56;;;8.19;84.35
74529;BME280;63009;52.584;5.932;2022-09-20T02:10:08;102341.78;;;8.12;83.88
74529;BME280;63009;52.584;5.932;2022-09-20T02:35:34;102346.75;;;7.89;87.49
74529;BME280;63009;52.584;5.932;2022-09-20T02:43:53;102357.13;;;7.95;89.19
74529;BME280;63009;52.584;5.932;2022-09-20T02:46:29;102350.09;;;7.95;88.79
74529;BME280;63009;52.584;5.932;2022-09-20T02:49:27;102351.78;;;7.98;88.97
74529;BME280;63009;52.584;5.932;2022-09-20T02:52:25;102349.94;;;8.03;88.83
74529;BME280;63009;52.584;5.932;2022-09-20T02:55:02;102349.78;;;8.09;88.59
74529;BME280;63009;52.584;5.932;2022-09-20T03:00:07;102349.41;;;8.24;89.38
74529;BME280;63009;52.584;5.932;2022-09-20T03:03:01;102355.44;;;8.28;89.96
74529;BME280;63009;52.584;5.932;2022-09-20T03:18:53;102356.16;;;8.70;89.86
74529;BME280;63009;52.584;5.932;2022-09-20T03:27:18;102359.97;;;8.92;89.07
74529;BME280;63009;52.584;5.932;2022-09-20T03:30:00;102361.50;;;9.00;88.90
74529;BME280;63009;52.584;5.932;2022-09-20T03:37:54;102351.38;;;9.17;88.26
74529;BME280;63009;52.584;5.932;2022-09-20T03:43:37;102358.06;;;9.29;87.56
74529;BME280;63009;52.584;5.932;2022-09-20T03:46:08;102361.41;;;9.35;87.79
74529;BME280;63009;52.584;5.932;2022-09-20T03:48:53;102365.72;;;9.38;87.45
74529;BME280;63009;52.584;5.932;2022-09-20T03:51:38;102362.06;;;9.42;87.32
74529;BME280;63009;52.584;5.932;2022-09-20T03:54:21;102366.38;;;9.46;87.64
74529;BME280;63009;52.584;5.932;2022-09-20T03:57:14;102357.66;;;9.44;87.26
74529;BME280;63009;52.584;5.932;2022-09-20T03:59:51;102374.91;;;9.54;86.95
74529;BME280;63009;52.584;5.932;2022-09-20T04:04:54;102372.56;;;9.74;84.77
74529;BME280;63009;52.584;5.932;2022-09-20T04:10:26;102374.69;;;9.91;84.77
74529;BME280;63009;52.584;5.932;2022-09-20T04:13:16;102371.03;;;9.95;84.99
74529;BME280;63009;52.584;5.932;2022-09-20T04:15:54;102373.63;;;9.97;84.77
74529;BME280;63009;52.584;5.932;2022-09-20T04:26:14;102359.53;;;9.96;85.00
74529;BME280;63009;52.584;5.932;2022-09-20T04:28:52;102367.25;;;10.04;84.89
74529;BME280;63009;52.584;5.932;2022-09-20T04:31:35;102371.59;;;10.05;85.17
74529;BME280;63009;52.584;5.932;2022-09-20T04:34:12;102362.88;;;10.03;84.85
74529;BME280;63009;52.584;5.932;2022-09-20T04:37:00;102376.88;;;10.05;84.69
74529;BME280;63009;52.584;5.932;2022-09-20T04:39:56;102370.78;;;10.03;84.93
74529;BME280;63009;52.584;5.932;2022-09-20T04:43:00;102365.56;;;10.01;85.04
74529;BME280;63009;52.584;5.932;2022-09-20T04:48:26;102382.41;;;9.97;84.83
74529;BME280;63009;52.584;5.932;2022-09-20T04:54:07;102379.81;;;9.96;84.99
74529;BME280;63009;52.584;5.932;2022-09-20T05:04:39;102386.97;;;9.92;85.60
74529;BME280;63009;52.584;5.932;2022-09-20T05:10:42;102394.78;;;9.95;85.46
74529;BME280;63009;52.584;5.932;2022-09-20T05:16:03;102396.53;;;9.96;85.73
74529;BME280;63009;52.584;5.932;2022-09-20T05:21:42;102390.28;;;9.99;86.58
74529;BME280;63009;52.584;5.932;2022-09-20T05:24:30;102402.44;;;10.04;86.66
74529;BME280;63009;52.584;5.932;2022-09-20T05:27:12;102386.81;;;9.97;86.59
74529;BME280;63009;52.584;5.932;2022-09-20T05:29:49;102415.50;;;10.09;87.01
74529;BME280;63009;52.584;5.932;2022-09-20T05:32:37;102402.28;;;10.09;87.40
74529;BME280;63009;52.584;5.932;2022-09-20T05:35:27;102409.19;;;10.13;87.39
74529;BME280;63009;52.584;5.932;2022-09-20T05:38:05;102397.06;;;10.07;87.14
74529;BME280;63009;52.584;5.932;2022-09-20T05:40:56;102416.91;;;10.21;87.12
74529;BME280;63009;52.584;5.932;2022-09-20T05:43:32;102412.47;;;10.23;87.57
74529;BME280;63009;52.584;5.932;2022-09-20T05:57:30;102424.19;;;10.42;86.67
74529;BME280;63009;52.584;5.932;2022-09-20T06:05:45;102432.59;;;10.53;85.97
74529;BME280;63009;52.584;5.932;2022-09-20T06:08:32;102431.66;;;10.56;86.31
74529;BME280;63009;52.584;5.932;2022-09-20T06:16:42;102434.91;;;10.64;85.56
74529;BME280;63009;52.584;5.932;2022-09-20T06:22:04;102445.88;;;10.78;85.61
74529;BME280;63009;52.584;5.932;2022-09-20T06:24:54;102458.25;;;10.78;85.87
74529;BME280;63009;52.584;5.932;2022-09-20T06:27:27;102454.56;;;10.82;85.45
74529;BME280;63009;52.584;5.932;2022-09-20T06:29:58;102462.44;;;10.85;85.64
74529;BME280;63009;52.584;5.932;2022-09-20T06:32:24;102456.31;;;10.83;86.05
74529;BME280;63009;52.584;5.932;2022-09-20T06:34:51;102467.56;;;10.89;86.17
74529;BME280;63009;52.584;5.932;2022-09-20T06:37:38;102468.38;;;10.91;86.60
74529;BME280;63009;52.584;5.932;2022-09-20T06:40:38;102472.84;;;10.89;86.75
74529;BME280;63009;52.584;5.932;2022-09-20T06:43:22;102452.75;;;10.84;87.19
74529;BME280;63009;52.584;5.932;2022-09-20T06:45:48;102475.22;;;10.97;86.77
74529;BME280;63009;52.584;5.932;2022-09-20T06:48:13;102461.00;;;11.01;86.95
74529;BME280;63009;52.584;5.932;2022-09-20T06:50:40;102458.28;;;11.03;87.29
74529;BME280;63009;52.584;5.932;2022-09-20T06:53:14;102459.22;;;11.02;87.26
74529;BME280;63009;52.584;5.932;2022-09-20T06:55:41;102459.84;;;11.08;87.39
74529;BME280;63009;52.584;5.932;2022-09-20T06:58:07;102452.84;;;11.07;87.05
74529;BME280;63009;52.584;5.932;2022-09-20T07:00:34;102457.88;;;11.15;87.41
74529;BME280;63009;52.584;5.932;2022-09-20T07:02:59;102447.22;;;11.16;87.58
74529;BME280;63009;52.584;5.932;2022-09-20T07:05:24;102456.59;;;11.26;87.26
74529;BME280;63009;52.584;5.932;2022-09-20T07:07:55;102457.22;;;11.33;87.16
74529;BME280;63009;52.584;5.932;2022-09-20T07:10:21;102452.84;;;11.32;87.79
74529;BME280;63009;52.584;5.932;2022-09-20T07:12:46;102443.00;;;11.36;87.46
74529;BME280;63009;52.584;5.932;2022-09-20T07:15:12;102447.22;;;11.41;86.94
74529;BME280;63009;52.584;5.932;2022-09-20T07:17:38;102446.06;;;11.48;86.47
74529;BME280;63009;52.584;5.932;2022-09-20T07:20:04;102447.78;;;11.49;87.14
74529;BME280;63009;52.584;5.932;2022-09-20T07:22:29;102459.78;;;11.59;86.92
74529;BME280;63009;52.584;5.932;2022-09-20T07:24:55;102458.00;;;11.60;87.06
74529;BME280;63009;52.584;5.932;2022-09-20T07:27:20;102456.84;;;11.67;86.51
74529;BME280;63009;52.584;5.932;2022-09-20T07:29:45;102452.66;;;11.62;85.99
74529;BME280;63009;52.584;5.932;2022-09-20T07:32:11;102469.75;;;11.76;85.45
74529;BME280;63009;52.584;5.932;2022-09-20T07:34:36;102467.25;;;11.97;85.38
74529;BME280;63009;52.584;5.932;2022-09-20T07:37:02;102459.78;;;12.30;84.18
74529;BME280;63009;52.584;5.932;2022-09-20T07:39:27;102466.22;;;12.88;84.15
74529;BME280;63009;52.584;5.932;2022-09-20T07:41:53;102462.69;;;13.30;80.08
74529;BME280;63009;52.584;5.932;2022-09-20T07:44:18;102454.28;;;13.59;78.45
74529;BME280;63009;52.584;5.932;2022-09-20T07:46:55;102462.50;;;13.92;78.30
74529;BME280;63009;52.584;5.932;2022-09-20T07:49:22;102467.81;;;14.11;78.58
74529;BME280;63009;52.584;5.932;2022-09-20T07:51:49;102459.69;;;14.14;77.39
74529;BME280;63009;52.584;5.932;2022-09-20T07:54:14;102455.75;;;14.23;77.32
74529;BME280;63009;52.584;5.932;2022-09-20T07:56:40;102468.31;;;14.19;74.96
74529;BME280;63009;52.584;5.932;2022-09-20T07:59:06;102459.38;;;14.20;75.17
74529;BME280;63009;52.584;5.932;2022-09-20T08:01:32;102467.59;;;14.16;72.85
74529;BME280;63009;52.584;5.932;2022-09-20T08:03:57;102462.34;;;14.14;72.92
74529;BME280;63009;52.584;5.932;2022-09-20T08:06:23;102465.72;;;14.18;73.79
74529;BME280;63009;52.584;5.932;2022-09-20T08:08:49;102472.66;;;14.22;73.53
74529;BME280;63009;52.584;5.932;2022-09-20T08:11:21;102485.88;;;14.23;73.22
74529;BME280;63009;52.584;5.932;2022-09-20T08:13:51;102482.19;;;14.26;73.91
74529;BME280;63009;52.584;5.932;2022-09-20T08:16:17;102492.44;;;14.34;74.54
74529;BME280;63009;52.584;5.932;2022-09-20T08:18:47;102484.78;;;14.27;72.95
74529;BME280;63009;52.584;5.932;2022-09-20T08:21:13;102495.84;;;14.37;73.46
74529;BME280;63009;52.584;5.932;2022-09-20T08:23:40;102499.56;;;14.33;71.96
74529;BME280;63009;52.584;5.932;2022-09-20T08:26:09;102507.78;;;14.29;73.26
74529;BME280;63009;52.584;5.932;2022-09-20T08:28:36;102499.78;;;14.29;72.73
74529;BME280;63009;52.584;5.932;2022-09-20T08:31:06;102502.84;;;14.76;73.14
74529;BME280;63009;52.584;5.932;2022-09-20T08:33:32;102491.91;;;15.17;71.61
74529;BME280;63009;52.584;5.932;2022-09-20T08:35:58;102479.53;;;15.50;70.64
74529;BME280;63009;52.584;5.932;2022-09-20T08:38:23;102495.28;;;15.88;66.56
74529;BME280;63009;52.584;5.932;2022-09-20T08:41:03;102478.53;;;16.17;67.73
74529;BME280;63009;52.584;5.932;2022-09-20T08:43:39;102496.78;;;16.56;65.54
74529;BME280;63009;52.584;5.932;2022-09-20T08:46:10;102493.41;;;16.84;65.43
74529;BME280;63009;52.584;5.932;2022-09-20T08:48:37;102492.25;;;16.88;64.55
74529;BME280;63009;52.584;5.932;2022-09-20T08:51:03;102496.59;;;17.21;65.50
74529;BME280;63009;52.584;5.932;2022-09-20T08:53:33;102484.09;;;17.36;63.68
74529;BME280;63009;52.584;5.932;2022-09-20T08:55:58;102483.47;;;17.61;63.81
74529;BME280;63009;52.584;5.932;2022-09-20T08:58:25;102486.53;;;17.83;62.90
74529;BME280;63009;52.584;5.932;2022-09-20T09:00:52;102493.91;;;17.79;61.67
74529;BME280;63009;52.584;5.932;2022-09-20T09:03:18;102501.06;;;17.93;60.86
74529;BME280;63009;52.584;5.932;2022-09-20T09:05:54;102494.56;;;17.97;59.86
74529;BME280;63009;52.584;5.932;2022-09-20T09:08:23;102494.88;;;17.78;60.11
74529;BME280;63009;52.584;5.932;2022-09-20T09:10:53;102498.41;;;17.79;59.76
74529;BME280;63009;52.584;5.932;2022-09-20T09:16:15;102487.69;;;17.93;59.55
74529;BME280;63009;52.584;5.932;2022-09-20T09:18:44;102494.56;;;17.97;59.62
74529;BME280;63009;52.584;5.932;2022-09-20T09:21:26;102490.56;;;17.90;59.47
74529;BME280;63009;52.584;5.932;2022-09-20T09:24:16;102492.50;;;17.74;60.25
74529;BME280;63009;52.584;5.932;2022-09-20T09:26:44;102490.03;;;17.55;60.62
74529;BME280;63009;52.584;5.932;2022-09-20T09:31:36;102511.03;;;17.33;62.79
74529;BME280;63009;52.584;5.932;2022-09-20T09:34:03;102501.56;;;17.41;61.59
74529;BME280;63009;52.584;5.932;2022-09-20T09:36:28;102510.19;;;17.16;61.96
74529;BME280;63009;52.584;5.932;2022-09-20T09:39:21;102505.44;;;17.66;62.14
74529;BME280;63009;52.584;5.932;2022-09-20T09:41:47;102496.72;;;17.48;61.02
74529;BME280;63009;52.584;5.932;2022-09-20T09:44:24;102506.00;;;17.12;61.77
74529;BME280;63009;52.584;5.932;2022-09-20T09:46:52;102507.47;;;17.02;62.89
74529;BME280;63009;52.584;5.932;2022-09-20T09:49:31;102509.94;;;16.91;64.57
74529;BME280;63009;52.584;5.932;2022-09-20T09:52:16;102511.75;;;16.75;64.48
74529;BME280;63009;52.584;5.932;2022-09-20T09:54:50;102521.75;;;16.40;65.60
74529;BME280;63009;52.584;5.932;2022-09-20T10:00:12;102511.75;;;16.75;64.65
74529;BME280;63009;52.584;5.932;2022-09-20T10:05:29;102490.34;;;17.06;61.96
74529;BME280;63009;52.584;5.932;2022-09-20T10:08:26;102503.69;;;17.36;60.77
74529;BME280;63009;52.584;5.932;2022-09-20T10:14:17;102502.03;;;17.19;59.70
74529;BME280;63009;52.584;5.932;2022-09-20T10:22:10;102512.34;;;16.17;66.02
74529;BME280;63009;52.584;5.932;2022-09-20T10:25:24;102488.78;;;15.76;67.55
74529;BME280;63009;52.584;5.932;2022-09-20T10:28:06;102514.16;;;15.50;68.82
74529;BME280;63009;52.584;5.932;2022-09-20T10:33:25;102506.25;;;14.79;71.84
74529;BME280;63009;52.584;5.932;2022-09-20T10:36:14;102521.56;;;14.92;71.03
74529;BME280;63009;52.584;5.932;2022-09-20T10:38:45;102514.31;;;14.95;71.45
74529;BME280;63009;52.584;5.932;2022-09-20T10:47:14;102524.03;;;15.13;69.47
74529;BME280;63009;52.584;5.932;2022-09-20T10:49:52;102518.25;;;15.23;70.31
74529;BME280;63009;52.584;5.932;2022-09-20T10:52:36;102517.91;;;15.29;70.89
74529;BME280;63009;52.584;5.932;2022-09-20T10:55:18;102520.25;;;15.18;71.45
74529;BME280;63009;52.584;5.932;2022-09-20T10:58:07;102529.38;;;15.13;69.37
74529;BME280;63009;52.584;5.932;2022-09-20T11:04:10;102520.13;;;15.21;69.64
74529;BME280;63009;52.584;5.932;2022-09-20T11:06:23;102519.19;;;15.39;68.79
74529;BME280;63009;52.584;5.932;2022-09-20T11:08:57;102518.81;;;15.64;69.13
74529;BME280;63009;52.584;5.932;2022-09-20T11:11:32;102510.47;;;15.70;67.16
74529;BME280;63009;52.584;5.932;2022-09-20T11:14:03;102522.81;;;15.88;66.58
74529;BME280;63009;52.584;5.932;2022-09-20T11:16:53;102519.09;;;16.40;64.95
74529;BME280;63009;52.584;5.932;2022-09-20T11:22:10;102523.13;;;16.62;61.98
74529;BME280;63009;52.584;5.932;2022-09-20T11:24:49;102525.91;;;16.77;61.18
74529;BME280;63009;52.584;5.932;2022-09-20T11:27:31;102523.91;;;16.80;60.72
74529;BME280;63009;52.584;5.932;2022-09-20T11:30:04;102531.50;;;16.72;57.70
74529;BME280;63009;52.584;5.932;2022-09-20T11:32:40;102529.00;;;16.53;55.78
74529;BME280;63009;52.584;5.932;2022-09-20T11:37:42;102529.06;;;16.52;56.60
74529;BME280;63009;52.584;5.932;2022-09-20T11:40:40;102533.75;;;16.48;55.57
74529;BME280;63009;52.584;5.932;2022-09-20T11:43:08;102529.94;;;16.52;55.89
74529;BME280;63009;52.584;5.932;2022-09-20T11:45:36;102518.31;;;16.53;56.27
74529;BME280;63009;52.584;5.932;2022-09-20T11:48:20;102511.16;;;16.54;56.75
74529;BME280;63009;52.584;5.932;2022-09-20T11:56:28;102523.22;;;16.61;56.11
74529;BME280;63009;52.584;5.932;2022-09-20T11:58:58;102527.19;;;16.70;57.22
74529;BME280;63009;52.584;5.932;2022-09-20T12:04:18;102537.69;;;16.41;56.70
74529;BME280;63009;52.584;5.932;2022-09-20T12:06:56;102521.16;;;16.19;59.09
74529;BME280;63009;52.584;5.932;2022-09-20T12:09:56;102544.41;;;16.48;59.93
74529;BME280;63009;52.584;5.932;2022-09-20T12:12:45;102540.06;;;16.46;60.10
74529;BME280;63009;52.584;5.932;2022-09-20T12:26:07;102521.97;;;16.98;53.11
74529;BME280;63009;52.584;5.932;2022-09-20T12:28:45;102526.94;;;17.20;54.23
74529;BME280;63009;52.584;5.932;2022-09-20T12:36:37;102531.09;;;17.10;53.62
74529;BME280;63009;52.584;5.932;2022-09-20T12:44:26;102534.19;;;17.18;53.35
74529;BME280;63009;52.584;5.932;2022-09-20T12:49:42;102530.56;;;17.19;52.86
74529;BME280;63009;52.584;5.932;2022-09-20T12:58:00;102526.81;;;17.66;54.76
74529;BME280;63009;52.584;5.932;2022-09-20T13:05:43;102524.47;;;17.90;54.39
74529;BME280;63009;52.584;5.932;2022-09-20T13:08:24;102526.56;;;17.85;51.86
74529;BME280;63009;52.584;5.932;2022-09-20T13:13:48;102526.19;;;18.19;53.62
74529;BME280;63009;52.584;5.932;2022-09-20T13:16:21;102530.72;;;18.46;51.47
74529;BME280;63009;52.584;5.932;2022-09-20T13:19:00;102538.88;;;18.71;51.03
74529;BME280;63009;52.584;5.932;2022-09-20T13:21:26;102523.44;;;18.89;51.47
74529;BME280;63009;52.584;5.932;2022-09-20T13:23:52;102530.09;;;18.96;50.13
74529;BME280;63009;52.584;5.932;2022-09-20T13:26:24;102531.41;;;19.03;48.82
74529;BME280;63009;52.584;5.932;2022-09-20T13:28:53;102511.19;;;18.85;47.31
74529;BME280;63009;52.584;5.932;2022-09-20T13:33:44;102544.56;;;18.52;51.37
74529;BME280;63009;52.584;5.932;2022-09-20T13:36:09;102519.38;;;18.14;50.80
74529;BME280;63009;52.584;5.932;2022-09-20T13:38:35;102548.53;;;18.32;52.77
74529;BME280;63009;52.584;5.932;2022-09-20T13:41:07;102549.59;;;18.30;52.58
74529;BME280;63009;52.584;5.932;2022-09-20T13:43:42;102537.44;;;18.24;53.77
74529;BME280;63009;52.584;5.932;2022-09-20T13:46:22;102548.72;;;18.01;53.50
74529;BME280;63009;52.584;5.932;2022-09-20T13:48:53;102540.03;;;17.69;53.74
74529;BME280;63009;52.584;5.932;2022-09-20T13:51:25;102545.09;;;17.43;54.71
74529;BME280;63009;52.584;5.932;2022-09-20T13:53:52;102535.88;;;17.49;54.98
74529;BME280;63009;52.584;5.932;2022-09-20T13:56:26;102536.09;;;17.60;54.81
74529;BME280;63009;52.584;5.932;2022-09-20T13:58:53;102533.88;;;17.52;54.89
74529;BME280;63009;52.584;5.932;2022-09-20T14:01:31;102539.59;;;17.46;52.91
74529;BME280;63009;52.584;5.932;2022-09-20T14:04:07;102543.97;;;17.33;54.41
74529;BME280;63009;52.584;5.932;2022-09-20T14:06:33;102537.94;;;17.44;54.52
74529;BME280;63009;52.584;5.932;2022-09-20T14:09:02;102546.00;;;17.58;53.97
74529;BME280;63009;52.584;5.932;2022-09-20T14:11:29;102544.84;;;17.48;53.17
74529;BME280;63009;52.584;5.932;2022-09-20T14:14:00;102544.75;;;17.49;53.26
74529;BME280;63009;52.584;5.932;2022-09-20T14:16:29;102544.66;;;17.51;53.52
74529;BME280;63009;52.584;5.932;2022-09-20T14:18:56;102530.97;;;17.41;52.88
74529;BME280;63009;52.584;5.932;2022-09-20T14:21:24;102540.94;;;17.54;53.12
74529;BME280;63009;52.584;5.932;2022-09-20T14:23:51;102540.38;;;17.63;52.81
74529;BME280;63009;52.584;5.932;2022-09-20T14:26:26;102543.88;;;17.79;52.59
74529;BME280;63009;52.584;5.932;2022-09-20T14:28:53;102539.66;;;17.75;52.60
74529;BME280;63009;52.584;5.932;2022-09-20T14:31:30;102530.28;;;17.82;51.53
74529;BME280;63009;52.584;5.932;2022-09-20T14:34:00;102539.69;;;18.03;53.28
74529;BME280;63009;52.584;5.932;2022-09-20T14:36:28;102531.16;;;18.11;52.60
74529;BME280;63009;52.584;5.932;2022-09-20T14:39:00;102538.41;;;18.09;51.45
74529;BME280;63009;52.584;5.932;2022-09-20T14:41:33;102536.28;;;18.28;52.73
74529;BME280;63009;52.584;5.932;2022-09-20T14:44:00;102525.22;;;18.20;50.83
74529;BME280;63009;52.584;5.932;2022-09-20T14:46:33;102532.19;;;18.23;50.51
74529;BME280;63009;52.584;5.932;2022-09-20T14:52:20;102535.94;;;18.20;50.88
74529;BME280;63009;52.584;5.932;2022-09-20T14:54:39;102540.03;;;18.26;51.75
74529;BME280;63009;52.584;5.932;2022-09-20T14:57:05;102520.25;;;18.14;51.53
74529;BME280;63009;52.584;5.932;2022-09-20T14:59:41;102541.84;;;18.11;51.28
74529;BME280;63009;52.584;5.932;2022-09-20T15:04:33;102526.41;;;18.02;52.26
74529;BME280;63009;52.584;5.932;2022-09-20T15:07:03;102540.81;;;17.99;52.19
74529;BME280;63009;52.584;5.932;2022-09-20T15:09:30;102533.38;;;17.90;52.77
74529;BME280;63009;52.584;5.932;2022-09-20T15:11:59;102533.94;;;17.81;53.42
74529;BME280;63009;52.584;5.932;2022-09-20T15:14:25;102515.63;;;17.59;54.22
74529;BME280;63009;52.584;5.932;2022-09-20T15:16:50;102523.66;;;17.59;55.29
74529;BME280;63009;52.584;5.932;2022-09-20T15:19:16;102537.34;;;17.69;54.49
74529;BME280;63009;52.584;5.932;2022-09-20T15:21:41;102528.63;;;17.65;53.92
74529;BME280;63009;52.584;5.932;2022-09-20T15:24:06;102535.34;;;17.72;54.73
74529;BME280;63009;52.584;5.932;2022-09-20T15:26:32;102537.94;;;17.74;55.27
74529;BME280;63009;52.584;5.932;2022-09-20T15:28:59;102533.47;;;17.74;55.58
74529;BME280;63009;52.584;5.932;2022-09-20T15:31:25;102534.13;;;17.78;53.03
74529;BME280;63009;52.584;5.932;2022-09-20T15:33:51;102538.81;;;17.74;53.50
74529;BME280;63009;52.584;5.932;2022-09-20T15:36:16;102547.41;;;17.79;54.28
74529;BME280;63009;52.584;5.932;2022-09-20T15:38:41;102531.50;;;17.62;52.48
74529;BME280;63009;52.584;5.932;2022-09-20T15:41:07;102555.66;;;17.61;53.44
74529;BME280;63009;52.584;5.932;2022-09-20T15:43:32;102549.63;;;17.57;55.12
74529;BME280;63009;52.584;5.932;2022-09-20T15:46:00;102542.66;;;17.55;54.43
74529;BME280;63009;52.584;5.932;2022-09-20T15:48:32;102510.19;;;17.46;54.65
74529;BME280;63009;52.584;5.932;2022-09-20T15:51:03;102541.03;;;17.52;54.92
74529;BME280;63009;52.584;5.932;2022-09-20T15:53:31;102536.94;;;17.46;54.10
74529;BME280;63009;52.584;5.932;2022-09-20T15:55:59;102530.25;;;17.54;55.29
74529;BME280;63009;52.584;5.932;2022-09-20T15:58:28;102547.81;;;17.58;54.09
74529;BME280;63009;52.584;5.932;2022-09-20T16:01:00;102540.38;;;17.63;55.06
74529;BME280;63009;52.584;5.932;2022-09-20T16:03:30;102546.47;;;17.50;54.34
74529;BME280;63009;52.584;5.932;2022-09-20T16:05:58;102548.19;;;17.51;54.80
74529;BME280;63009;52.584;5.932;2022-09-20T16:08:23;102543.97;;;17.33;54.53
74529;BME280;63009;52.584;5.932;2022-09-20T16:10:57;102554.13;;;17.27;54.92
74529;BME280;63009;52.584;5.932;2022-09-20T16:13:22;102542.25;;;17.16;55.34
74529;BME280;63009;52.584;5.932;2022-09-20T16:15:55;102549.63;;;16.97;54.95
74529;BME280;63009;52.584;5.932;2022-09-20T16:18:21;102543.16;;;17.01;55.36
74529;BME280;63009;52.584;5.932;2022-09-20T16:21:06;102549.97;;;17.07;55.96
74529;BME280;63009;52.584;5.932;2022-09-20T16:23:32;102546.03;;;16.98;56.22
74529;BME280;63009;52.584;5.932;2022-09-20T16:25:57;102564.44;;;17.03;57.13
74529;BME280;63009;52.584;5.932;2022-09-20T16:28:22;102551.88;;;17.05;57.40
74529;BME280;63009;52.584;5.932;2022-09-20T16:30:55;102558.66;;;17.10;57.37
74529;BME280;63009;52.584;5.932;2022-09-20T16:33:21;102565.63;;;17.13;57.44
74529;BME280;63009;52.584;5.932;2022-09-20T16:35:46;102562.78;;;17.16;57.65
74529;BME280;63009;52.584;5.932;2022-09-20T16:38:11;102570.78;;;17.16;57.69
74529;BME280;63009;52.584;5.932;2022-09-20T16:40:38;102568.22;;;17.14;58.20
74529;BME280;63009;52.584;5.932;2022-09-20T16:43:03;102568.22;;;17.14;58.44
74529;BME280;63009;52.584;5.932;2022-09-20T16:45:30;102563.00;;;16.97;56.88
74529;BME280;63009;52.584;5.932;2022-09-20T16:47:55;102577.72;;;17.04;57.13
74529;BME280;63009;52.584;5.932;2022-09-20T16:50:22;102577.78;;;17.03;57.26
74529;BME280;63009;52.584;5.932;2022-09-20T16:52:47;102579.69;;;17.01;56.97
74529;BME280;63009;52.584;5.932;2022-09-20T16:55:13;102583.41;;;16.98;57.24
74529;BME280;63009;52.584;5.932;2022-09-20T16:57:38;102575.16;;;16.87;57.88
74529;BME280;63009;52.584;5.932;2022-09-20T17:00:04;102576.88;;;16.88;58.96
74529;BME280;63009;52.584;5.932;2022-09-20T17:02:29;102570.16;;;16.81;59.31
74529;BME280;63009;52.584;5.932;2022-09-20T17:04:55;102580.19;;;16.77;59.42
74529;BME280;63009;52.584;5.932;2022-09-20T17:07:20;102589.91;;;16.78;59.52
74529;BME280;63009;52.584;5.932;2022-09-20T17:09:47;102588.41;;;16.73;59.44
74529;BME280;63009;52.584;5.932;2022-09-20T17:12:12;102584.78;;;16.58;59.72
74529;BME280;63009;52.584;5.932;2022-09-20T17:14:43;102574.53;;;16.50;60.28
74529;BME280;63009;52.584;5.932;2022-09-20T17:17:08;102591.59;;;16.48;60.73